sensor_id;sensor_type;location;lat;lon;timestamp;P1;durP1;ratioP1;P2;durP2;ratioP2
44169;SDS011;29836;52.286;9.576;2023-07-29T00:00:46;1.90;;;1.50;;
44169;SDS011;29836;52.286;9.576;2023-07-29T00:03:12;2.90;;;1.50;;
44169;SDS011;29836;52.286;9.576;2023-07-29T00:05:37;2.67;;;1.60;;
44169;SDS011;29836;52.286;9.576;2023-07-29T00:08:03;2.15;;;1.50;;
44169;SDS011;29836;52.286;9.576;2023-07-29T00:10:30;2.42;;;1.55;;
44169;SDS011;29836;52.286;9.576;2023-07-29T00:12:56;2.08;;;1.52;;
44169;SDS011;29836;52.286;9.576;2023-07-29T00:15:22;2.53;;;1.40;;
44169;SDS011;29836;52.286;9.576;2023-07-29T00:17:48;2.40;;;1.83;;
44169;SDS011;29836;52.286;9.576;2023-07-29T00:20:14;2.40;;;1.60;;
44169;SDS011;29836;52.286;9.576;2023-07-29T00:22:40;2.90;;;2.00;;
44169;SDS011;29836;52.286;9.576;2023-07-29T00:25:05;2.95;;;1.90;;
44169;SDS011;29836;52.286;9.576;2023-07-29T00:27:31;2.88;;;1.83;;
44169;SDS011;29836;52.286;9.576;2023-07-29T00:29:57;2.72;;;1.70;;
44169;SDS011;29836;52.286;9.576;2023-07-29T00:32:22;2.83;;;1.60;;
44169;SDS011;29836;52.286;9.576;2023-07-29T00:34:48;4.28;;;2.10;;
44169;SDS011;29836;52.286;9.576;2023-07-29T00:37:13;3.80;;;2.00;;
44169;SDS011;29836;52.286;9.576;2023-07-29T00:39:39;3.17;;;2.05;;
44169;SDS011;29836;52.286;9.576;2023-07-29T00:42:05;3.90;;;2.00;;
44169;SDS011;29836;52.286;9.576;2023-07-29T00:44:31;2.83;;;2.08;;
44169;SDS011;29836;52.286;9.576;2023-07-29T00:46:56;2.50;;;1.70;;
44169;SDS011;29836;52.286;9.576;2023-07-29T00:49:23;3.30;;;2.00;;
44169;SDS011;29836;52.286;9.576;2023-07-29T00:51:49;3.60;;;2.53;;
44169;SDS011;29836;52.286;9.576;2023-07-29T00:54:15;5.57;;;2.60;;
44169;SDS011;29836;52.286;9.576;2023-07-29T00:56:40;3.53;;;2.28;;
44169;SDS011;29836;52.286;9.576;2023-07-29T00:59:07;4.55;;;2.20;;
44169;SDS011;29836;52.286;9.576;2023-07-29T01:01:33;3.17;;;2.08;;
44169;SDS011;29836;52.286;9.576;2023-07-29T01:03:58;2.90;;;1.80;;
44169;SDS011;29836;52.286;9.576;2023-07-29T01:08:59;2.88;;;1.88;;
44169;SDS011;29836;52.286;9.576;2023-07-29T01:16:59;3.47;;;1.80;;
44169;SDS011;29836;52.286;9.576;2023-07-29T01:21:56;2.75;;;1.50;;
44169;SDS011;29836;52.286;9.576;2023-07-29T01:24:23;2.30;;;1.48;;
44169;SDS011;29836;52.286;9.576;2023-07-29T01:26:48;2.17;;;1.58;;
44169;SDS011;29836;52.286;9.576;2023-07-29T01:29:14;2.20;;;1.40;;
44169;SDS011;29836;52.286;9.576;2023-07-29T01:31:42;2.88;;;1.70;;
44169;SDS011;29836;52.286;9.576;2023-07-29T01:34:10;4.63;;;1.80;;
44169;SDS011;29836;52.286;9.576;2023-07-29T01:36:42;4.18;;;1.85;;
44169;SDS011;29836;52.286;9.576;2023-07-29T01:39:10;4.25;;;2.10;;
44169;SDS011;29836;52.286;9.576;2023-07-29T01:41:36;3.45;;;1.77;;
44169;SDS011;29836;52.286;9.576;2023-07-29T01:44:02;2.88;;;1.92;;
44169;SDS011;29836;52.286;9.576;2023-07-29T01:46:29;4.15;;;2.20;;
44169;SDS011;29836;52.286;9.576;2023-07-29T01:48:56;2.25;;;1.75;;
44169;SDS011;29836;52.286;9.576;2023-07-29T01:51:22;5.15;;;1.88;;
44169;SDS011;29836;52.286;9.576;2023-07-29T01:53:47;2.40;;;1.58;;
44169;SDS011;29836;52.286;9.576;2023-07-29T01:56:13;2.50;;;1.60;;
44169;SDS011;29836;52.286;9.576;2023-07-29T01:58:39;3.22;;;1.80;;
44169;SDS011;29836;52.286;9.576;2023-07-29T02:01:04;2.17;;;1.60;;
44169;SDS011;29836;52.286;9.576;2023-07-29T02:03:30;2.50;;;1.75;;
44169;SDS011;29836;52.286;9.576;2023-07-29T02:05:55;2.92;;;1.70;;
44169;SDS011;29836;52.286;9.576;2023-07-29T02:08:21;2.22;;;1.63;;
44169;SDS011;29836;52.286;9.576;2023-07-29T02:10:46;3.85;;;1.80;;
44169;SDS011;29836;52.286;9.576;2023-07-29T02:13:13;4.22;;;1.95;;
44169;SDS011;29836;52.286;9.576;2023-07-29T02:15:39;3.10;;;1.80;;
44169;SDS011;29836;52.286;9.576;2023-07-29T02:18:04;2.72;;;1.77;;
44169;SDS011;29836;52.286;9.576;2023-07-29T02:20:31;4.53;;;1.80;;
44169;SDS011;29836;52.286;9.576;2023-07-29T02:22:57;4.45;;;1.95;;
44169;SDS011;29836;52.286;9.576;2023-07-29T02:25:22;3.55;;;1.70;;
44169;SDS011;29836;52.286;9.576;2023-07-29T02:27:48;3.33;;;1.55;;
44169;SDS011;29836;52.286;9.576;2023-07-29T02:30:13;3.10;;;1.75;;
44169;SDS011;29836;52.286;9.576;2023-07-29T02:32:39;2.78;;;1.52;;
44169;SDS011;29836;52.286;9.576;2023-07-29T02:35:04;2.35;;;1.65;;
44169;SDS011;29836;52.286;9.576;2023-07-29T02:37:30;4.40;;;1.80;;
44169;SDS011;29836;52.286;9.576;2023-07-29T02:39:56;2.08;;;1.27;;
44169;SDS011;29836;52.286;9.576;2023-07-29T02:42:21;2.80;;;1.60;;
44169;SDS011;29836;52.286;9.576;2023-07-29T02:44:47;2.47;;;1.73;;
44169;SDS011;29836;52.286;9.576;2023-07-29T02:47:12;3.25;;;1.30;;
44169;SDS011;29836;52.286;9.576;2023-07-29T02:49:38;3.00;;;1.77;;
44169;SDS011;29836;52.286;9.576;2023-07-29T02:52:03;2.10;;;1.48;;
44169;SDS011;29836;52.286;9.576;2023-07-29T02:54:30;2.83;;;1.70;;
44169;SDS011;29836;52.286;9.576;2023-07-29T02:56:55;2.13;;;1.60;;
44169;SDS011;29836;52.286;9.576;2023-07-29T02:59:21;3.92;;;1.77;;
44169;SDS011;29836;52.286;9.576;2023-07-29T03:01:46;3.05;;;1.60;;
44169;SDS011;29836;52.286;9.576;2023-07-29T03:04:12;2.20;;;1.67;;
44169;SDS011;29836;52.286;9.576;2023-07-29T03:06:40;2.47;;;1.60;;
44169;SDS011;29836;52.286;9.576;2023-07-29T03:09:05;2.47;;;1.75;;
44169;SDS011;29836;52.286;9.576;2023-07-29T03:11:31;2.40;;;1.63;;
44169;SDS011;29836;52.286;9.576;2023-07-29T03:13:57;2.45;;;1.65;;
44169;SDS011;29836;52.286;9.576;2023-07-29T03:16:22;3.78;;;1.50;;
44169;SDS011;29836;52.286;9.576;2023-07-29T03:18:49;2.83;;;1.70;;
44169;SDS011;29836;52.286;9.576;2023-07-29T03:21:15;1.83;;;1.50;;
44169;SDS011;29836;52.286;9.576;2023-07-29T03:23:40;3.20;;;1.40;;
44169;SDS011;29836;52.286;9.576;2023-07-29T03:26:06;2.75;;;2.03;;
44169;SDS011;29836;52.286;9.576;2023-07-29T03:28:35;2.88;;;1.70;;
44169;SDS011;29836;52.286;9.576;2023-07-29T03:31:03;2.55;;;1.60;;
44169;SDS011;29836;52.286;9.576;2023-07-29T03:33:29;2.70;;;1.70;;
44169;SDS011;29836;52.286;9.576;2023-07-29T03:35:54;2.55;;;1.70;;
44169;SDS011;29836;52.286;9.576;2023-07-29T03:38:20;2.45;;;1.77;;
44169;SDS011;29836;52.286;9.576;2023-07-29T03:40:46;2.72;;;1.60;;
44169;SDS011;29836;52.286;9.576;2023-07-29T03:43:11;2.63;;;1.60;;
44169;SDS011;29836;52.286;9.576;2023-07-29T03:45:37;4.35;;;1.70;;
44169;SDS011;29836;52.286;9.576;2023-07-29T03:48:04;2.45;;;1.70;;
44169;SDS011;29836;52.286;9.576;2023-07-29T03:50:30;3.42;;;1.67;;
44169;SDS011;29836;52.286;9.576;2023-07-29T03:52:56;3.38;;;1.73;;
44169;SDS011;29836;52.286;9.576;2023-07-29T03:55:21;2.90;;;1.85;;
44169;SDS011;29836;52.286;9.576;2023-07-29T03:57:47;2.30;;;1.60;;
44169;SDS011;29836;52.286;9.576;2023-07-29T04:00:13;2.30;;;1.60;;
44169;SDS011;29836;52.286;9.576;2023-07-29T04:02:39;3.47;;;1.80;;
44169;SDS011;29836;52.286;9.576;2023-07-29T04:05:05;2.88;;;1.73;;
44169;SDS011;29836;52.286;9.576;2023-07-29T04:07:33;3.20;;;1.77;;
44169;SDS011;29836;52.286;9.576;2023-07-29T04:09:59;2.80;;;1.75;;
44169;SDS011;29836;52.286;9.576;2023-07-29T04:12:25;2.47;;;1.50;;
44169;SDS011;29836;52.286;9.576;2023-07-29T04:14:51;2.60;;;1.75;;
44169;SDS011;29836;52.286;9.576;2023-07-29T04:17:17;3.53;;;1.88;;
44169;SDS011;29836;52.286;9.576;2023-07-29T04:19:42;2.97;;;1.75;;
44169;SDS011;29836;52.286;9.576;2023-07-29T04:22:08;2.58;;;1.60;;
44169;SDS011;29836;52.286;9.576;2023-07-29T04:24:33;2.90;;;1.67;;
44169;SDS011;29836;52.286;9.576;2023-07-29T04:26:59;2.10;;;1.50;;
44169;SDS011;29836;52.286;9.576;2023-07-29T04:29:25;3.03;;;1.77;;
44169;SDS011;29836;52.286;9.576;2023-07-29T04:31:50;3.08;;;1.80;;
44169;SDS011;29836;52.286;9.576;2023-07-29T04:34:17;1.83;;;1.30;;
44169;SDS011;29836;52.286;9.576;2023-07-29T04:36:43;1.95;;;1.30;;
44169;SDS011;29836;52.286;9.576;2023-07-29T04:39:08;2.83;;;1.85;;
44169;SDS011;29836;52.286;9.576;2023-07-29T04:41:34;2.30;;;1.60;;
44169;SDS011;29836;52.286;9.576;2023-07-29T04:43:59;3.22;;;1.50;;
44169;SDS011;29836;52.286;9.576;2023-07-29T04:46:25;2.40;;;1.48;;
44169;SDS011;29836;52.286;9.576;2023-07-29T04:48:50;2.63;;;1.60;;
44169;SDS011;29836;52.286;9.576;2023-07-29T04:51:16;3.97;;;1.50;;
44169;SDS011;29836;52.286;9.576;2023-07-29T04:53:42;2.80;;;1.65;;
44169;SDS011;29836;52.286;9.576;2023-07-29T04:56:07;2.13;;;1.50;;
44169;SDS011;29836;52.286;9.576;2023-07-29T04:58:33;4.38;;;1.50;;
44169;SDS011;29836;52.286;9.576;2023-07-29T05:01:00;2.08;;;1.40;;
44169;SDS011;29836;52.286;9.576;2023-07-29T05:03:26;2.40;;;1.65;;
44169;SDS011;29836;52.286;9.576;2023-07-29T05:05:52;3.38;;;1.90;;
44169;SDS011;29836;52.286;9.576;2023-07-29T05:08:19;2.55;;;1.65;;
44169;SDS011;29836;52.286;9.576;2023-07-29T05:10:48;2.15;;;1.40;;
44169;SDS011;29836;52.286;9.576;2023-07-29T05:13:14;3.15;;;1.52;;
44169;SDS011;29836;52.286;9.576;2023-07-29T05:15:40;2.40;;;1.63;;
44169;SDS011;29836;52.286;9.576;2023-07-29T05:18:05;4.70;;;1.60;;
44169;SDS011;29836;52.286;9.576;2023-07-29T05:20:31;3.08;;;1.63;;
44169;SDS011;29836;52.286;9.576;2023-07-29T05:22:57;2.15;;;1.60;;
44169;SDS011;29836;52.286;9.576;2023-07-29T05:25:22;2.95;;;1.75;;
44169;SDS011;29836;52.286;9.576;2023-07-29T05:27:48;1.98;;;1.50;;
44169;SDS011;29836;52.286;9.576;2023-07-29T05:30:13;2.30;;;1.60;;
44169;SDS011;29836;52.286;9.576;2023-07-29T05:32:39;2.72;;;1.52;;
44169;SDS011;29836;52.286;9.576;2023-07-29T05:35:04;2.60;;;1.70;;
44169;SDS011;29836;52.286;9.576;2023-07-29T05:37:30;2.30;;;1.80;;
44169;SDS011;29836;52.286;9.576;2023-07-29T05:39:56;2.08;;;1.58;;
44169;SDS011;29836;52.286;9.576;2023-07-29T05:42:21;2.20;;;1.60;;
44169;SDS011;29836;52.286;9.576;2023-07-29T05:44:47;2.03;;;1.50;;
44169;SDS011;29836;52.286;9.576;2023-07-29T05:47:12;2.85;;;1.50;;
44169;SDS011;29836;52.286;9.576;2023-07-29T05:49:38;2.60;;;1.60;;
44169;SDS011;29836;52.286;9.576;2023-07-29T05:52:03;2.35;;;1.73;;
44169;SDS011;29836;52.286;9.576;2023-07-29T05:54:29;3.67;;;1.63;;
44169;SDS011;29836;52.286;9.576;2023-07-29T05:56:55;1.80;;;1.40;;
44169;SDS011;29836;52.286;9.576;2023-07-29T05:59:20;4.90;;;1.90;;
44169;SDS011;29836;52.286;9.576;2023-07-29T06:01:46;2.90;;;1.77;;
44169;SDS011;29836;52.286;9.576;2023-07-29T06:04:11;2.85;;;1.92;;
44169;SDS011;29836;52.286;9.576;2023-07-29T06:06:37;3.67;;;1.70;;
44169;SDS011;29836;52.286;9.576;2023-07-29T06:09:02;2.17;;;1.60;;
44169;SDS011;29836;52.286;9.576;2023-07-29T06:11:28;3.90;;;1.77;;
44169;SDS011;29836;52.286;9.576;2023-07-29T06:13:53;2.58;;;1.65;;
44169;SDS011;29836;52.286;9.576;2023-07-29T06:16:19;2.55;;;1.60;;
44169;SDS011;29836;52.286;9.576;2023-07-29T06:18:45;2.20;;;1.58;;
44169;SDS011;29836;52.286;9.576;2023-07-29T06:21:10;4.30;;;2.00;;
44169;SDS011;29836;52.286;9.576;2023-07-29T06:23:41;2.53;;;1.55;;
44169;SDS011;29836;52.286;9.576;2023-07-29T06:26:08;4.45;;;1.80;;
44169;SDS011;29836;52.286;9.576;2023-07-29T06:28:33;2.97;;;1.63;;
44169;SDS011;29836;52.286;9.576;2023-07-29T06:30:59;2.60;;;1.60;;
44169;SDS011;29836;52.286;9.576;2023-07-29T06:33:24;2.28;;;1.77;;
44169;SDS011;29836;52.286;9.576;2023-07-29T06:35:50;1.98;;;1.48;;
44169;SDS011;29836;52.286;9.576;2023-07-29T06:38:15;3.70;;;1.80;;
44169;SDS011;29836;52.286;9.576;2023-07-29T06:40:46;1.65;;;1.30;;
44169;SDS011;29836;52.286;9.576;2023-07-29T06:43:12;1.95;;;1.50;;
44169;SDS011;29836;52.286;9.576;2023-07-29T06:45:38;4.78;;;1.60;;
44169;SDS011;29836;52.286;9.576;2023-07-29T06:48:03;2.88;;;1.70;;
44169;SDS011;29836;52.286;9.576;2023-07-29T06:50:29;3.03;;;1.60;;
44169;SDS011;29836;52.286;9.576;2023-07-29T06:52:54;3.55;;;1.75;;
44169;SDS011;29836;52.286;9.576;2023-07-29T06:55:20;3.90;;;1.80;;
44169;SDS011;29836;52.286;9.576;2023-07-29T06:57:45;2.65;;;1.40;;
44169;SDS011;29836;52.286;9.576;2023-07-29T07:00:11;2.80;;;1.65;;
44169;SDS011;29836;52.286;9.576;2023-07-29T07:02:37;2.33;;;1.65;;
44169;SDS011;29836;52.286;9.576;2023-07-29T07:05:02;2.33;;;1.55;;
44169;SDS011;29836;52.286;9.576;2023-07-29T07:07:28;1.88;;;1.52;;
44169;SDS011;29836;52.286;9.576;2023-07-29T07:09:54;2.67;;;1.65;;
44169;SDS011;29836;52.286;9.576;2023-07-29T07:12:19;3.17;;;2.20;;
44169;SDS011;29836;52.286;9.576;2023-07-29T07:14:45;3.90;;;2.17;;
44169;SDS011;29836;52.286;9.576;2023-07-29T07:17:10;4.63;;;1.70;;
44169;SDS011;29836;52.286;9.576;2023-07-29T07:19:36;2.30;;;1.40;;
44169;SDS011;29836;52.286;9.576;2023-07-29T07:22:02;3.45;;;1.60;;
44169;SDS011;29836;52.286;9.576;2023-07-29T07:24:28;3.28;;;1.60;;
44169;SDS011;29836;52.286;9.576;2023-07-29T07:26:53;2.60;;;1.73;;
44169;SDS011;29836;52.286;9.576;2023-07-29T07:29:19;3.38;;;1.80;;
44169;SDS011;29836;52.286;9.576;2023-07-29T07:31:49;2.65;;;1.90;;
44169;SDS011;29836;52.286;9.576;2023-07-29T07:34:17;2.55;;;2.00;;
44169;SDS011;29836;52.286;9.576;2023-07-29T07:36:43;2.58;;;1.98;;
44169;SDS011;29836;52.286;9.576;2023-07-29T07:39:09;3.83;;;2.15;;
44169;SDS011;29836;52.286;9.576;2023-07-29T07:41:34;2.42;;;2.05;;
44169;SDS011;29836;52.286;9.576;2023-07-29T07:44:00;3.28;;;2.42;;
44169;SDS011;29836;52.286;9.576;2023-07-29T07:46:25;3.72;;;2.55;;
44169;SDS011;29836;52.286;9.576;2023-07-29T07:48:51;2.83;;;2.17;;
44169;SDS011;29836;52.286;9.576;2023-07-29T07:51:16;4.50;;;2.20;;
44169;SDS011;29836;52.286;9.576;2023-07-29T07:53:42;2.40;;;1.83;;
44169;SDS011;29836;52.286;9.576;2023-07-29T07:56:07;3.47;;;2.22;;
44169;SDS011;29836;52.286;9.576;2023-07-29T07:58:33;2.80;;;1.90;;
44169;SDS011;29836;52.286;9.576;2023-07-29T08:01:03;3.20;;;2.40;;
44169;SDS011;29836;52.286;9.576;2023-07-29T08:03:29;3.35;;;2.60;;
44169;SDS011;29836;52.286;9.576;2023-07-29T08:05:55;3.90;;;2.45;;
44169;SDS011;29836;52.286;9.576;2023-07-29T08:08:20;3.63;;;2.53;;
44169;SDS011;29836;52.286;9.576;2023-07-29T08:10:46;3.67;;;2.50;;
44169;SDS011;29836;52.286;9.576;2023-07-29T08:13:11;2.72;;;2.28;;
44169;SDS011;29836;52.286;9.576;2023-07-29T08:15:37;3.60;;;2.63;;
44169;SDS011;29836;52.286;9.576;2023-07-29T08:18:02;3.40;;;2.03;;
44169;SDS011;29836;52.286;9.576;2023-07-29T08:20:28;3.03;;;2.20;;
44169;SDS011;29836;52.286;9.576;2023-07-29T08:22:54;2.88;;;2.17;;
44169;SDS011;29836;52.286;9.576;2023-07-29T08:25:19;2.67;;;2.10;;
44169;SDS011;29836;52.286;9.576;2023-07-29T08:27:45;3.17;;;2.15;;
44169;SDS011;29836;52.286;9.576;2023-07-29T08:30:10;4.53;;;2.13;;
44169;SDS011;29836;52.286;9.576;2023-07-29T08:32:36;3.17;;;2.28;;
44169;SDS011;29836;52.286;9.576;2023-07-29T08:35:01;3.33;;;2.20;;
44169;SDS011;29836;52.286;9.576;2023-07-29T08:37:27;4.47;;;2.33;;
44169;SDS011;29836;52.286;9.576;2023-07-29T08:39:53;3.88;;;2.45;;
44169;SDS011;29836;52.286;9.576;2023-07-29T08:42:21;2.92;;;2.50;;
44169;SDS011;29836;52.286;9.576;2023-07-29T08:44:53;3.45;;;2.72;;
44169;SDS011;29836;52.286;9.576;2023-07-29T08:47:21;2.63;;;2.15;;
44169;SDS011;29836;52.286;9.576;2023-07-29T08:49:46;2.88;;;2.42;;
44169;SDS011;29836;52.286;9.576;2023-07-29T08:52:14;5.25;;;2.60;;
44169;SDS011;29836;52.286;9.576;2023-07-29T08:54:40;3.80;;;2.42;;
44169;SDS011;29836;52.286;9.576;2023-07-29T08:57:06;3.17;;;2.65;;
44169;SDS011;29836;52.286;9.576;2023-07-29T08:59:32;3.78;;;2.58;;
44169;SDS011;29836;52.286;9.576;2023-07-29T09:01:58;4.15;;;2.97;;
44169;SDS011;29836;52.286;9.576;2023-07-29T09:04:24;4.25;;;2.65;;
44169;SDS011;29836;52.286;9.576;2023-07-29T09:06:50;3.70;;;2.88;;
44169;SDS011;29836;52.286;9.576;2023-07-29T09:09:16;4.10;;;2.78;;
44169;SDS011;29836;52.286;9.576;2023-07-29T09:11:43;4.78;;;3.00;;
44169;SDS011;29836;52.286;9.576;2023-07-29T09:14:09;4.10;;;3.13;;
44169;SDS011;29836;52.286;9.576;2023-07-29T09:16:35;4.03;;;3.15;;
44169;SDS011;29836;52.286;9.576;2023-07-29T09:19:01;4.35;;;3.38;;
44169;SDS011;29836;52.286;9.576;2023-07-29T09:21:28;4.72;;;3.40;;
44169;SDS011;29836;52.286;9.576;2023-07-29T09:23:54;3.78;;;3.17;;
44169;SDS011;29836;52.286;9.576;2023-07-29T09:26:24;5.10;;;4.30;;
44169;SDS011;29836;52.286;9.576;2023-07-29T09:28:54;10.73;;;5.60;;
44169;SDS011;29836;52.286;9.576;2023-07-29T09:31:22;8.75;;;5.68;;
44169;SDS011;29836;52.286;9.576;2023-07-29T09:33:49;9.77;;;6.63;;
44169;SDS011;29836;52.286;9.576;2023-07-29T09:36:15;9.38;;;6.63;;
44169;SDS011;29836;52.286;9.576;2023-07-29T09:38:41;10.82;;;6.95;;
44169;SDS011;29836;52.286;9.576;2023-07-29T09:41:07;8.90;;;7.18;;
44169;SDS011;29836;52.286;9.576;2023-07-29T09:43:36;8.73;;;6.97;;
44169;SDS011;29836;52.286;9.576;2023-07-29T09:46:02;8.55;;;7.05;;
44169;SDS011;29836;52.286;9.576;2023-07-29T09:48:32;9.07;;;7.05;;
44169;SDS011;29836;52.286;9.576;2023-07-29T09:50:59;10.15;;;7.95;;
44169;SDS011;29836;52.286;9.576;2023-07-29T09:53:38;8.95;;;7.22;;
44169;SDS011;29836;52.286;9.576;2023-07-29T09:56:07;7.72;;;6.47;;
44169;SDS011;29836;52.286;9.576;2023-07-29T09:58:33;9.48;;;6.35;;
44169;SDS011;29836;52.286;9.576;2023-07-29T10:01:00;8.35;;;6.03;;
44169;SDS011;29836;52.286;9.576;2023-07-29T10:03:26;5.30;;;4.72;;
44169;SDS011;29836;52.286;9.576;2023-07-29T10:05:52;7.78;;;5.57;;
44169;SDS011;29836;52.286;9.576;2023-07-29T10:08:18;7.18;;;5.40;;
44169;SDS011;29836;52.286;9.576;2023-07-29T10:10:45;7.18;;;5.35;;
44169;SDS011;29836;52.286;9.576;2023-07-29T10:13:10;5.65;;;5.05;;
44169;SDS011;29836;52.286;9.576;2023-07-29T10:15:37;8.30;;;5.47;;
44169;SDS011;29836;52.286;9.576;2023-07-29T10:18:03;6.40;;;5.00;;
44169;SDS011;29836;52.286;9.576;2023-07-29T10:20:30;5.40;;;4.63;;
44169;SDS011;29836;52.286;9.576;2023-07-29T10:22:58;6.20;;;5.05;;
44169;SDS011;29836;52.286;9.576;2023-07-29T10:25:25;7.82;;;4.60;;
44169;SDS011;29836;52.286;9.576;2023-07-29T10:28:05;5.20;;;4.15;;
44169;SDS011;29836;52.286;9.576;2023-07-29T10:30:31;5.70;;;4.07;;
44169;SDS011;29836;52.286;9.576;2023-07-29T10:32:58;4.72;;;3.63;;
44169;SDS011;29836;52.286;9.576;2023-07-29T10:35:32;3.70;;;3.10;;
44169;SDS011;29836;52.286;9.576;2023-07-29T10:37:59;3.92;;;3.30;;
44169;SDS011;29836;52.286;9.576;2023-07-29T10:40:26;3.45;;;2.97;;
44169;SDS011;29836;52.286;9.576;2023-07-29T10:45:40;4.20;;;2.80;;
44169;SDS011;29836;52.286;9.576;2023-07-29T10:50:35;3.15;;;2.80;;
44169;SDS011;29836;52.286;9.576;2023-07-29T10:53:00;4.10;;;2.50;;
44169;SDS011;29836;52.286;9.576;2023-07-29T10:55:27;3.40;;;2.60;;
44169;SDS011;29836;52.286;9.576;2023-07-29T10:58:14;2.97;;;2.45;;
44169;SDS011;29836;52.286;9.576;2023-07-29T11:00:44;3.53;;;2.25;;
44169;SDS011;29836;52.286;9.576;2023-07-29T11:03:11;2.10;;;1.55;;
44169;SDS011;29836;52.286;9.576;2023-07-29T11:05:44;3.28;;;1.48;;
44169;SDS011;29836;52.286;9.576;2023-07-29T11:13:28;3.05;;;1.30;;
44169;SDS011;29836;52.286;9.576;2023-07-29T11:15:55;1.98;;;1.30;;
44169;SDS011;29836;52.286;9.576;2023-07-29T11:18:24;1.95;;;1.42;;
44169;SDS011;29836;52.286;9.576;2023-07-29T11:20:53;1.98;;;1.20;;
44169;SDS011;29836;52.286;9.576;2023-07-29T11:23:21;2.72;;;1.30;;
44169;SDS011;29836;52.286;9.576;2023-07-29T11:25:56;2.28;;;1.00;;
44169;SDS011;29836;52.286;9.576;2023-07-29T11:28:23;1.73;;;1.08;;
44169;SDS011;29836;52.286;9.576;2023-07-29T11:30:50;2.28;;;1.17;;
44169;SDS011;29836;52.286;9.576;2023-07-29T11:33:23;3.92;;;1.08;;
44169;SDS011;29836;52.286;9.576;2023-07-29T11:35:50;1.65;;;1.05;;
44169;SDS011;29836;52.286;9.576;2023-07-29T11:38:16;1.50;;;1.00;;
44169;SDS011;29836;52.286;9.576;2023-07-29T11:40:43;1.63;;;1.10;;
44169;SDS011;29836;52.286;9.576;2023-07-29T11:43:18;1.65;;;1.00;;
44169;SDS011;29836;52.286;9.576;2023-07-29T11:45:44;1.67;;;1.20;;
44169;SDS011;29836;52.286;9.576;2023-07-29T11:48:10;1.13;;;0.80;;
44169;SDS011;29836;52.286;9.576;2023-07-29T11:50:35;1.40;;;0.90;;
44169;SDS011;29836;52.286;9.576;2023-07-29T11:53:01;1.27;;;1.00;;
44169;SDS011;29836;52.286;9.576;2023-07-29T11:55:27;1.02;;;0.80;;
44169;SDS011;29836;52.286;9.576;2023-07-29T11:57:52;1.90;;;0.80;;
44169;SDS011;29836;52.286;9.576;2023-07-29T12:00:18;4.03;;;0.85;;
44169;SDS011;29836;52.286;9.576;2023-07-29T12:02:45;1.13;;;0.80;;
44169;SDS011;29836;52.286;9.576;2023-07-29T12:05:12;0.98;;;0.80;;
44169;SDS011;29836;52.286;9.576;2023-07-29T12:07:39;0.98;;;0.70;;
44169;SDS011;29836;52.286;9.576;2023-07-29T12:10:07;1.23;;;0.90;;
44169;SDS011;29836;52.286;9.576;2023-07-29T12:12:37;1.20;;;0.80;;
44169;SDS011;29836;52.286;9.576;2023-07-29T12:15:10;2.15;;;0.90;;
44169;SDS011;29836;52.286;9.576;2023-07-29T12:17:41;1.00;;;0.77;;
44169;SDS011;29836;52.286;9.576;2023-07-29T12:20:08;1.90;;;0.90;;
44169;SDS011;29836;52.286;9.576;2023-07-29T12:22:35;0.82;;;0.70;;
44169;SDS011;29836;52.286;9.576;2023-07-29T12:25:01;1.15;;;0.77;;
44169;SDS011;29836;52.286;9.576;2023-07-29T12:27:29;1.95;;;0.80;;
44169;SDS011;29836;52.286;9.576;2023-07-29T12:29:56;1.55;;;0.85;;
44169;SDS011;29836;52.286;9.576;2023-07-29T12:32:24;1.17;;;0.80;;
44169;SDS011;29836;52.286;9.576;2023-07-29T12:34:52;1.25;;;0.70;;
44169;SDS011;29836;52.286;9.576;2023-07-29T12:37:18;1.20;;;0.80;;
44169;SDS011;29836;52.286;9.576;2023-07-29T12:39:44;1.33;;;0.70;;
44169;SDS011;29836;52.286;9.576;2023-07-29T12:42:09;1.20;;;0.80;;
44169;SDS011;29836;52.286;9.576;2023-07-29T12:44:35;2.17;;;0.98;;
44169;SDS011;29836;52.286;9.576;2023-07-29T12:47:02;1.77;;;0.70;;
44169;SDS011;29836;52.286;9.576;2023-07-29T12:49:29;1.00;;;0.80;;
44169;SDS011;29836;52.286;9.576;2023-07-29T12:51:58;1.88;;;0.85;;
44169;SDS011;29836;52.286;9.576;2023-07-29T12:54:24;2.13;;;0.90;;
44169;SDS011;29836;52.286;9.576;2023-07-29T12:56:50;1.30;;;0.82;;
44169;SDS011;29836;52.286;9.576;2023-07-29T12:59:16;1.00;;;0.80;;
44169;SDS011;29836;52.286;9.576;2023-07-29T13:01:41;1.63;;;0.98;;
44169;SDS011;29836;52.286;9.576;2023-07-29T13:04:07;0.95;;;0.80;;
44169;SDS011;29836;52.286;9.576;2023-07-29T13:06:34;2.15;;;0.95;;
44169;SDS011;29836;52.286;9.576;2023-07-29T13:08:59;1.73;;;0.90;;
44169;SDS011;29836;52.286;9.576;2023-07-29T13:11:25;0.85;;;0.65;;
44169;SDS011;29836;52.286;9.576;2023-07-29T13:13:51;1.33;;;0.90;;
44169;SDS011;29836;52.286;9.576;2023-07-29T13:16:16;1.13;;;0.80;;
44169;SDS011;29836;52.286;9.576;2023-07-29T13:18:43;1.13;;;0.80;;
44169;SDS011;29836;52.286;9.576;2023-07-29T13:21:08;2.03;;;0.70;;
44169;SDS011;29836;52.286;9.576;2023-07-29T13:23:34;1.35;;;0.90;;
44169;SDS011;29836;52.286;9.576;2023-07-29T13:26:00;1.13;;;0.80;;
44169;SDS011;29836;52.286;9.576;2023-07-29T13:28:25;1.50;;;0.90;;
44169;SDS011;29836;52.286;9.576;2023-07-29T13:30:51;1.40;;;0.90;;
44169;SDS011;29836;52.286;9.576;2023-07-29T13:33:17;1.27;;;0.80;;
44169;SDS011;29836;52.286;9.576;2023-07-29T13:35:42;1.50;;;0.80;;
44169;SDS011;29836;52.286;9.576;2023-07-29T13:38:08;1.20;;;0.95;;
44169;SDS011;29836;52.286;9.576;2023-07-29T13:40:34;1.25;;;0.80;;
44169;SDS011;29836;52.286;9.576;2023-07-29T13:42:59;1.20;;;0.90;;
44169;SDS011;29836;52.286;9.576;2023-07-29T13:45:25;1.33;;;0.82;;
44169;SDS011;29836;52.286;9.576;2023-07-29T13:47:50;1.25;;;0.80;;
44169;SDS011;29836;52.286;9.576;2023-07-29T13:50:17;0.88;;;0.80;;
44169;SDS011;29836;52.286;9.576;2023-07-29T13:52:43;1.38;;;0.80;;
44169;SDS011;29836;52.286;9.576;2023-07-29T13:55:09;1.08;;;0.70;;
44169;SDS011;29836;52.286;9.576;2023-07-29T13:57:35;1.00;;;0.77;;
44169;SDS011;29836;52.286;9.576;2023-07-29T14:00:00;1.67;;;0.90;;
44169;SDS011;29836;52.286;9.576;2023-07-29T14:02:26;1.48;;;0.80;;
44169;SDS011;29836;52.286;9.576;2023-07-29T14:04:52;1.48;;;0.90;;
44169;SDS011;29836;52.286;9.576;2023-07-29T14:07:18;1.27;;;0.90;;
44169;SDS011;29836;52.286;9.576;2023-07-29T14:09:43;1.35;;;0.90;;
44169;SDS011;29836;52.286;9.576;2023-07-29T14:12:09;0.95;;;0.80;;
44169;SDS011;29836;52.286;9.576;2023-07-29T14:14:39;4.60;;;1.08;;
44169;SDS011;29836;52.286;9.576;2023-07-29T14:17:05;1.90;;;1.02;;
44169;SDS011;29836;52.286;9.576;2023-07-29T14:19:32;1.25;;;0.82;;
44169;SDS011;29836;52.286;9.576;2023-07-29T14:21:57;1.10;;;0.90;;
44169;SDS011;29836;52.286;9.576;2023-07-29T14:24:23;1.75;;;0.98;;
44169;SDS011;29836;52.286;9.576;2023-07-29T14:26:48;1.63;;;1.00;;
44169;SDS011;29836;52.286;9.576;2023-07-29T14:29:14;3.28;;;1.00;;
44169;SDS011;29836;52.286;9.576;2023-07-29T14:31:39;1.73;;;0.95;;
44169;SDS011;29836;52.286;9.576;2023-07-29T14:34:05;3.05;;;0.90;;
44169;SDS011;29836;52.286;9.576;2023-07-29T14:36:31;2.75;;;1.10;;
44169;SDS011;29836;52.286;9.576;2023-07-29T14:38:56;4.68;;;1.10;;
44169;SDS011;29836;52.286;9.576;2023-07-29T14:41:22;2.70;;;1.10;;
44169;SDS011;29836;52.286;9.576;2023-07-29T14:43:47;1.67;;;0.95;;
44169;SDS011;29836;52.286;9.576;2023-07-29T14:46:13;1.67;;;0.93;;
44169;SDS011;29836;52.286;9.576;2023-07-29T14:48:38;1.45;;;1.00;;
44169;SDS011;29836;52.286;9.576;2023-07-29T14:51:04;2.00;;;0.98;;
44169;SDS011;29836;52.286;9.576;2023-07-29T14:53:29;1.80;;;1.00;;
44169;SDS011;29836;52.286;9.576;2023-07-29T14:55:55;1.20;;;0.90;;
44169;SDS011;29836;52.286;9.576;2023-07-29T14:58:21;3.17;;;1.00;;
44169;SDS011;29836;52.286;9.576;2023-07-29T15:00:46;3.30;;;1.00;;
44169;SDS011;29836;52.286;9.576;2023-07-29T15:03:12;1.40;;;0.90;;